createdAt,value
2019-04-20T00:01:07.355Z,8.48
2019-04-20T00:03:38.013Z,8.15
2019-04-20T00:06:03.540Z,8.00
2019-04-20T00:08:34.516Z,8.68
2019-04-20T00:11:07.339Z,8.30
2019-04-20T00:13:35.746Z,8.35
2019-04-20T00:15:57.743Z,8.65
2019-04-20T00:18:32.391Z,8.90
2019-04-20T00:21:03.852Z,8.93
2019-04-20T00:23:43.847Z,8.50
2019-04-20T00:26:56.192Z,9.70
2019-04-20T00:29:16.050Z,9.53
2019-04-20T00:31:41.998Z,9.68
2019-04-20T00:34:06.148Z,8.88
2019-04-20T00:36:41.499Z,9.83
2019-04-20T00:39:11.412Z,9.23
2019-04-20T00:41:44.128Z,8.68
2019-04-20T00:44:13.376Z,9.20
2019-04-20T00:46:46.907Z,9.10
2019-04-20T00:49:24.280Z,9.18
2019-04-20T00:51:52.540Z,8.45
2019-04-20T00:54:02.559Z,8.33
2019-04-20T00:56:30.962Z,8.05
2019-04-20T00:59:09.140Z,9.40
2019-04-20T01:01:50.224Z,8.65
2019-04-20T01:04:15.214Z,8.38
2019-04-20T01:07:08.976Z,8.45
2019-04-20T01:09:46.276Z,8.87
2019-04-20T01:12:18.178Z,9.80
2019-04-20T01:14:48.704Z,9.90
2019-04-20T01:17:12.100Z,9.18
2019-04-20T01:19:39.390Z,9.25
2019-04-20T01:22:11.003Z,8.63
2019-04-20T01:24:39.441Z,9.73
2019-04-20T01:27:05.651Z,9.38
2019-04-20T01:29:39.372Z,9.95
2019-04-20T01:32:10.580Z,10.20
2019-04-20T01:34:42.729Z,8.98
2019-04-20T01:37:13.120Z,10.15
2019-04-20T01:39:35.483Z,8.80
2019-04-20T01:41:56.111Z,9.95
2019-04-20T01:44:27.055Z,9.23
2019-04-20T01:46:57.045Z,10.43
2019-04-20T01:49:22.739Z,10.63
2019-04-20T01:51:57.495Z,10.40
2019-04-20T01:54:31.120Z,9.90
2019-04-20T01:57:01.687Z,10.28
2019-04-20T01:59:39.954Z,9.83
2019-04-20T02:02:11.568Z,9.60
2019-04-20T02:05:04.431Z,11.00
2019-04-20T02:07:34.617Z,10.43
2019-04-20T02:09:59.812Z,10.90
2019-04-20T02:12:28.354Z,11.20
2019-04-20T02:14:57.041Z,9.53
2019-04-20T02:17:29.826Z,10.72
2019-04-20T02:20:12.642Z,11.28
2019-04-20T02:22:38.341Z,11.60
2019-04-20T02:24:46.842Z,10.30
2019-04-20T02:27:14.730Z,10.40
2019-04-20T02:30:07.679Z,10.93
2019-04-20T02:32:36.548Z,10.65
2019-04-20T02:35:30.222Z,11.80
2019-04-20T02:40:39.712Z,10.80
2019-04-20T02:48:08.187Z,10.70
2019-04-20T02:50:34.222Z,11.40
2019-04-20T02:53:11.454Z,10.98
2019-04-20T02:55:24.818Z,11.10
2019-04-20T03:02:51.969Z,10.88
2019-04-20T03:05:22.961Z,11.22
2019-04-20T03:07:59.360Z,10.32
2019-04-20T03:10:36.573Z,11.90
2019-04-20T03:12:55.029Z,11.40
2019-04-20T03:15:31.401Z,11.48
2019-04-20T03:17:59.173Z,10.93
2019-04-20T03:20:23.259Z,11.22
2019-04-20T03:23:11.699Z,11.12
2019-04-20T03:25:45.265Z,10.35
2019-04-20T03:28:10.381Z,10.65
2019-04-20T03:33:58.387Z,10.65
2019-04-20T03:36:14.658Z,10.53
2019-04-20T03:38:47.893Z,10.72
2019-04-20T03:41:26.395Z,10.70
2019-04-20T03:43:47.639Z,10.75
2019-04-20T03:46:19.179Z,11.08
2019-04-20T03:49:01.351Z,10.72
2019-04-20T03:51:33.359Z,10.85
2019-04-20T03:54:13.595Z,10.50
2019-04-20T03:57:06.613Z,9.73
2019-04-20T04:00:03.384Z,10.48
2019-04-20T04:05:28.471Z,11.03
2019-04-20T04:07:47.015Z,11.03
2019-04-20T04:10:27.307Z,10.75
2019-04-20T04:13:05.517Z,11.00
2019-04-20T04:15:36.138Z,10.93
2019-04-20T04:18:10.264Z,10.75
2019-04-20T04:20:38.657Z,10.55
2019-04-20T04:23:14.980Z,10.60
2019-04-20T04:25:39.849Z,10.05
2019-04-20T04:28:12.905Z,11.15
2019-04-20T04:30:40.310Z,11.25
2019-04-20T04:35:34.892Z,11.18
2019-04-20T04:38:05.809Z,11.95
2019-04-20T04:41:11.203Z,10.98
2019-04-20T04:43:28.504Z,11.35
2019-04-20T04:45:38.595Z,11.38
2019-04-20T04:48:13.093Z,12.20
2019-04-20T04:50:44.568Z,11.12
2019-04-20T04:53:11.198Z,10.23
2019-04-20T04:55:42.936Z,10.85
2019-04-20T04:58:00.492Z,10.65
2019-04-20T05:00:31.095Z,11.22
2019-04-20T05:03:02.009Z,10.20
2019-04-20T05:05:58.886Z,9.80
2019-04-20T05:08:18.066Z,10.93
2019-04-20T05:10:37.022Z,10.78
2019-04-20T05:13:04.987Z,10.82
2019-04-20T05:15:46.122Z,11.03
2019-04-20T05:18:21.853Z,11.75
2019-04-20T05:20:54.661Z,10.63
2019-04-20T05:23:31.977Z,10.60
2019-04-20T05:26:16.898Z,9.10
2019-04-20T05:28:33.568Z,9.88
2019-04-20T05:30:59.490Z,10.40
2019-04-20T05:33:36.519Z,10.88
2019-04-20T05:36:11.765Z,9.98
2019-04-20T05:38:42.050Z,10.63
2019-04-20T05:41:10.003Z,11.03
2019-04-20T05:46:16.927Z,11.83
2019-04-20T05:48:45.700Z,11.48
2019-04-20T05:51:13.452Z,10.95
2019-04-20T05:53:44.386Z,11.35
2019-04-20T05:56:09.138Z,10.95
2019-04-20T05:58:38.780Z,10.88
2019-04-20T06:01:08.857Z,10.90
2019-04-20T06:03:37.155Z,11.25
2019-04-20T06:06:23.535Z,10.72
2019-04-20T06:08:51.214Z,10.72
2019-04-20T06:11:03.859Z,11.22
2019-04-20T06:13:47.048Z,10.55
2019-04-20T06:16:31.074Z,10.75
2019-04-20T06:19:13.052Z,10.65
2019-04-20T06:21:54.326Z,10.78
2019-04-20T06:24:24.945Z,10.13
2019-04-20T06:26:49.250Z,11.70
2019-04-20T06:28:58.229Z,11.65
2019-04-20T06:31:36.102Z,11.33
2019-04-20T06:44:31.748Z,12.07
2019-04-20T06:47:04.180Z,11.50
2019-04-20T06:55:05.467Z,12.37
2019-04-20T06:57:50.212Z,13.15
2019-04-20T07:00:10.342Z,12.88
2019-04-20T07:02:39.661Z,12.80
2019-04-20T07:05:05.334Z,11.53
2019-04-20T07:07:33.984Z,10.48
2019-04-20T07:10:08.875Z,11.33
2019-04-20T07:12:27.222Z,11.03
2019-04-20T07:14:49.009Z,8.95
2019-04-20T07:17:59.731Z,9.83
2019-04-20T07:20:42.765Z,9.33
2019-04-20T07:23:18.668Z,9.60
2019-04-20T07:25:38.163Z,9.80
2019-04-20T07:28:09.571Z,9.75
2019-04-20T07:30:32.480Z,9.65
2019-04-20T07:33:01.915Z,8.35
2019-04-20T07:35:31.883Z,8.10
2019-04-20T07:38:25.586Z,8.93
2019-04-20T07:40:25.797Z,9.33
2019-04-20T07:42:55.247Z,8.35
2019-04-20T07:47:52.696Z,8.85
2019-04-20T07:50:20.092Z,8.68
2019-04-20T07:52:39.664Z,9.23
2019-04-20T07:55:33.365Z,8.93
2019-04-20T07:57:42.896Z,9.55
2019-04-20T08:00:16.324Z,9.13
2019-04-20T08:03:12.951Z,8.40
2019-04-20T08:05:33.545Z,8.83
2019-04-20T08:08:02.602Z,9.43
2019-04-20T08:10:34.172Z,9.08
2019-04-20T08:13:14.262Z,8.80
2019-04-20T08:15:43.232Z,9.88
2019-04-20T08:18:02.750Z,9.73
2019-04-20T08:20:32.813Z,9.70
2019-04-20T08:22:58.850Z,9.08
2019-04-20T08:25:26.931Z,9.70
2019-04-20T08:27:59.136Z,9.43
2019-04-20T08:30:56.072Z,10.38
2019-04-20T08:33:24.462Z,9.38
2019-04-20T08:36:02.845Z,10.08
2019-04-20T08:40:54.956Z,10.82
2019-04-20T08:43:40.665Z,10.93
2019-04-20T08:45:57.098Z,10.18
2019-04-20T08:48:23.412Z,9.60
2019-04-20T08:50:50.489Z,9.77
2019-04-20T08:53:20.698Z,9.40
2019-04-20T08:55:42.554Z,9.87
2019-04-20T08:57:54.386Z,9.93
2019-04-20T09:00:29.745Z,10.10
2019-04-20T09:02:57.868Z,10.28
2019-04-20T09:05:30.418Z,9.07
2019-04-20T09:08:00.106Z,9.90
2019-04-20T09:10:40.754Z,9.38
2019-04-20T09:13:01.513Z,9.70
2019-04-20T09:15:16.867Z,9.60
2019-04-20T09:17:54.062Z,10.08
2019-04-20T09:20:29.477Z,10.10
2019-04-20T09:23:13.476Z,9.50
2019-04-20T09:28:23.813Z,10.23
2019-04-20T09:30:53.176Z,10.38
2019-04-20T09:33:47.017Z,9.95
2019-04-20T09:36:18.005Z,9.80
2019-04-20T09:39:21.087Z,9.58
2019-04-20T09:44:33.662Z,9.43
2019-04-20T09:46:58.299Z,9.23
2019-04-20T09:49:39.423Z,8.85
2019-04-20T09:52:06.850Z,9.68
2019-04-20T09:54:37.032Z,9.40
2019-04-20T09:57:10.064Z,9.83
2019-04-20T09:59:37.183Z,9.73
2019-04-20T10:01:55.538Z,9.58
2019-04-20T10:04:17.418Z,9.33
2019-04-20T10:06:45.573Z,8.88
2019-04-20T10:09:13.675Z,8.88
2019-04-20T10:11:43.418Z,9.05
2019-04-20T10:14:10.414Z,8.50
2019-04-20T10:16:39.714Z,8.85
2019-04-20T10:21:35.993Z,9.20
2019-04-20T10:24:02.937Z,9.28
2019-04-20T10:26:30.296Z,9.83
2019-04-20T10:28:57.480Z,9.08
2019-04-20T10:31:24.571Z,8.83
2019-04-20T10:33:51.489Z,8.30
2019-04-20T10:36:29.834Z,8.90
2019-04-20T10:38:58.154Z,8.83
2019-04-20T10:41:37.024Z,8.23
2019-04-20T10:43:53.881Z,8.20
2019-04-20T10:46:20.799Z,9.00
2019-04-20T10:48:50.793Z,9.15
2019-04-20T10:51:17.646Z,8.73
2019-04-20T10:53:44.641Z,8.70
2019-04-20T10:56:11.725Z,9.20
2019-04-20T10:58:40.020Z,7.90
2019-04-20T11:01:07.397Z,8.65
2019-04-20T11:03:34.627Z,9.15
2019-04-20T11:06:02.737Z,8.35
2019-04-20T11:08:30.664Z,8.93
2019-04-20T11:11:08.310Z,8.70
2019-04-20T11:13:27.603Z,8.40
2019-04-20T11:15:54.784Z,8.65
2019-04-20T11:18:21.791Z,8.28
2019-04-20T11:20:49.151Z,9.53
2019-04-20T11:23:16.202Z,10.00
2019-04-20T11:25:43.877Z,9.35
2019-04-20T11:28:12.261Z,8.85
2019-04-20T11:30:40.408Z,9.30
2019-04-20T11:33:07.213Z,9.00
2019-04-20T11:35:37.646Z,9.08
2019-04-20T11:38:02.987Z,9.50
2019-04-20T11:40:31.384Z,8.05
2019-04-20T11:42:58.093Z,8.35
2019-04-20T11:45:24.869Z,8.55
2019-04-20T11:47:51.677Z,9.58
2019-04-20T11:50:19.820Z,8.78
2019-04-20T11:52:49.237Z,8.68
2019-04-20T11:55:16.050Z,8.83
2019-04-20T11:57:43.210Z,8.35
2019-04-20T12:00:13.195Z,10.10
2019-04-20T12:03:00.301Z,9.08
2019-04-20T12:05:36.930Z,9.35
2019-04-20T12:08:00.822Z,9.70
2019-04-20T12:10:28.350Z,10.18
2019-04-20T12:12:57.551Z,9.50
2019-04-20T12:15:24.546Z,9.13
2019-04-20T12:17:51.540Z,8.95
2019-04-20T12:20:18.638Z,9.45
2019-04-20T12:22:46.244Z,8.53
2019-04-20T12:25:14.245Z,9.43
2019-04-20T12:27:47.630Z,8.83
2019-04-20T12:30:12.083Z,9.33
2019-04-20T12:32:42.938Z,8.23
2019-04-20T12:35:08.657Z,9.75
2019-04-20T12:37:36.819Z,8.85
2019-04-20T12:40:05.037Z,10.48
2019-04-20T12:42:32.937Z,9.60
2019-04-20T12:44:59.739Z,7.97
2019-04-20T12:47:27.677Z,9.13
2019-04-20T12:49:55.817Z,7.92
2019-04-20T12:52:22.818Z,8.35
2019-04-20T12:54:50.441Z,8.40
2019-04-20T12:57:18.485Z,8.20
2019-04-20T12:59:47.240Z,8.75
2019-04-20T13:02:15.407Z,8.00
2019-04-20T13:04:43.543Z,8.28
2019-04-20T13:07:12.157Z,9.60
2019-04-20T13:09:48.580Z,8.13
2019-04-20T13:12:23.599Z,9.58
2019-04-20T13:15:18.305Z,8.95
2019-04-20T13:17:46.488Z,8.58
2019-04-20T13:20:36.221Z,9.67
2019-04-20T13:23:04.440Z,10.00
2019-04-20T13:25:32.891Z,8.28
2019-04-20T13:28:00.936Z,9.85
2019-04-20T13:30:28.055Z,9.43
2019-04-20T13:32:57.124Z,9.70
2019-04-20T13:35:23.537Z,9.27
2019-04-20T13:37:50.328Z,10.60
2019-04-20T13:40:17.668Z,9.70
2019-04-20T13:42:45.617Z,9.08
2019-04-20T13:45:13.007Z,10.43
2019-04-20T13:47:40.857Z,9.85
2019-04-20T13:50:09.344Z,9.90
2019-04-20T13:52:36.467Z,9.80
2019-04-20T13:55:03.624Z,9.33
2019-04-20T13:57:37.997Z,9.15
2019-04-20T14:00:26.195Z,9.15
2019-04-20T14:03:00.631Z,10.05
2019-04-20T14:05:48.926Z,10.15
2019-04-20T14:08:21.166Z,9.88
2019-04-20T14:10:49.196Z,10.32
2019-04-20T14:13:19.208Z,9.80
2019-04-20T14:16:07.264Z,9.20
2019-04-20T14:18:35.368Z,9.45
2019-04-20T14:21:02.448Z,9.55
2019-04-20T14:23:30.824Z,9.58
2019-04-20T14:25:58.766Z,8.80
2019-04-20T14:28:25.539Z,9.43
2019-04-20T14:30:54.063Z,7.83
2019-04-20T14:33:21.034Z,8.75
2019-04-20T14:35:48.386Z,9.05
2019-04-20T14:38:15.443Z,8.78
2019-04-20T14:40:42.320Z,8.28
2019-04-20T14:43:09.013Z,8.23
2019-04-20T14:45:36.618Z,8.35
2019-04-20T14:48:03.788Z,9.33
2019-04-20T14:50:31.726Z,8.65
2019-04-20T14:52:59.774Z,8.88
2019-04-20T14:55:26.755Z,8.48
2019-04-20T14:57:55.472Z,8.18
2019-04-20T15:00:41.664Z,8.48
2019-04-20T15:03:26.675Z,8.70
2019-04-20T15:05:57.735Z,8.78
2019-04-20T15:08:24.891Z,9.15
2019-04-20T15:10:52.153Z,8.40
2019-04-20T15:13:20.400Z,8.88
2019-04-20T15:15:48.510Z,8.63
2019-04-20T15:18:15.768Z,9.08
2019-04-20T15:20:46.036Z,7.92
2019-04-20T15:23:17.431Z,8.03
2019-04-20T15:25:44.547Z,8.30
2019-04-20T15:28:12.316Z,7.00
2019-04-20T15:30:40.362Z,8.00
2019-04-20T15:33:07.349Z,7.58
2019-04-20T15:35:34.708Z,7.87
2019-04-20T15:38:02.816Z,8.33
2019-04-20T15:40:31.033Z,8.28
2019-04-20T15:43:05.961Z,7.78
2019-04-20T15:45:27.360Z,8.28
2019-04-20T15:47:54.266Z,8.15
2019-04-20T15:50:22.189Z,7.00
2019-04-20T15:52:52.691Z,7.58
2019-04-20T15:55:24.868Z,7.35
2019-04-20T15:57:46.545Z,7.55
2019-04-20T16:00:14.260Z,7.72
2019-04-20T16:02:49.415Z,8.10
2019-04-20T16:05:37.572Z,7.53
2019-04-20T16:08:42.385Z,7.47
2019-04-20T16:11:11.281Z,7.47
2019-04-20T16:13:43.654Z,7.30
2019-04-20T16:16:07.888Z,6.95
2019-04-20T16:18:35.072Z,7.45
2019-04-20T16:21:07.948Z,7.55
2019-04-20T16:23:40.803Z,7.47
2019-04-20T16:26:17.855Z,7.60
2019-04-20T16:28:45.873Z,7.17
2019-04-20T16:31:15.270Z,7.53
2019-04-20T16:33:42.253Z,7.37
2019-04-20T16:36:10.298Z,7.58
2019-04-20T16:38:37.328Z,6.97
2019-04-20T16:41:04.312Z,6.62
2019-04-20T16:43:37.380Z,6.80
2019-04-20T16:46:23.492Z,7.10
2019-04-20T16:48:48.428Z,7.03
2019-04-20T16:51:16.630Z,6.95
2019-04-20T16:53:43.733Z,6.42
2019-04-20T16:56:10.743Z,6.45
2019-04-20T16:58:37.880Z,6.72
2019-04-20T17:01:05.719Z,7.08
2019-04-20T17:03:48.875Z,6.12
2019-04-20T17:06:02.300Z,6.40
2019-04-20T17:08:29.242Z,5.78
2019-04-20T17:10:56.221Z,5.83
2019-04-20T17:13:34.072Z,5.70
2019-04-20T17:15:51.965Z,5.60
2019-04-20T17:18:19.306Z,5.35
2019-04-20T17:20:46.483Z,5.67
2019-04-20T17:23:13.628Z,5.75
2019-04-20T17:25:40.715Z,6.08
2019-04-20T17:28:40.652Z,5.08
2019-04-20T17:34:25.034Z,5.70
2019-04-20T17:36:38.408Z,5.08
2019-04-20T17:39:11.443Z,4.83
2019-04-20T17:41:54.593Z,5.37
2019-04-20T17:44:23.795Z,5.22
2019-04-20T17:46:41.325Z,5.17
2019-04-20T17:49:16.966Z,5.62
2019-04-20T17:51:55.544Z,5.78
2019-04-20T17:54:17.610Z,4.78
2019-04-20T17:56:44.724Z,5.15
2019-04-20T17:59:12.454Z,5.58
2019-04-20T18:02:13.148Z,4.85
2019-04-20T18:05:09.908Z,5.17
2019-04-20T18:07:36.628Z,7.67
2019-04-20T18:10:03.178Z,13.60
2019-04-20T18:12:18.804Z,25.30
2019-04-20T18:14:57.381Z,35.65
2019-04-20T18:17:54.672Z,43.68
2019-04-20T18:20:23.064Z,31.25
2019-04-20T18:22:55.224Z,24.23
2019-04-20T18:25:49.946Z,17.00
2019-04-20T18:28:04.136Z,11.08
2019-04-20T18:30:40.725Z,10.05
2019-04-20T18:32:55.927Z,7.67
2019-04-20T18:35:24.535Z,8.25
2019-04-20T18:37:59.295Z,7.00
2019-04-20T18:40:31.018Z,5.92
2019-04-20T18:42:55.869Z,5.08
2019-04-20T18:45:38.164Z,5.40
2019-04-20T18:48:05.952Z,5.87
2019-04-20T18:50:22.464Z,5.75
2019-04-20T18:52:45.415Z,5.17
2019-04-20T18:55:23.284Z,5.70
2019-04-20T18:57:43.439Z,5.67
2019-04-20T19:00:19.157Z,8.08
2019-04-20T19:02:47.503Z,8.70
2019-04-20T19:05:11.619Z,7.47
2019-04-20T19:07:41.468Z,11.25
2019-04-20T19:10:16.682Z,8.35
2019-04-20T19:12:47.246Z,8.70
2019-04-20T19:15:48.109Z,9.08
2019-04-20T19:18:11.633Z,8.30
2019-04-20T19:20:34.740Z,7.17
2019-04-20T19:23:02.203Z,6.42
2019-04-20T19:25:34.557Z,5.70
2019-04-20T19:28:00.099Z,7.00
2019-04-20T19:30:35.303Z,6.67
2019-04-20T19:33:16.260Z,6.42
2019-04-20T19:35:33.924Z,7.08
2019-04-20T19:38:19.034Z,7.80
2019-04-20T19:40:51.260Z,9.05
2019-04-20T19:43:22.090Z,12.13
2019-04-20T19:46:08.537Z,11.43
2019-04-20T19:48:22.411Z,11.57
2019-04-20T19:50:58.916Z,11.22
2019-04-20T19:53:26.582Z,10.58
2019-04-20T19:56:07.723Z,11.30
2019-04-20T19:58:32.275Z,10.78
2019-04-20T20:00:53.788Z,9.88
2019-04-20T20:03:21.603Z,10.72
2019-04-20T20:05:51.889Z,11.38
2019-04-20T20:08:23.053Z,12.05
2019-04-20T20:10:46.150Z,16.45
2019-04-20T20:13:13.240Z,13.45
2019-04-20T20:15:41.757Z,11.00
2019-04-20T20:18:23.177Z,10.35
2019-04-20T20:20:55.501Z,9.13
2019-04-20T20:23:07.896Z,9.55
2019-04-20T20:25:39.175Z,10.35
2019-04-20T20:28:16.987Z,9.73
2019-04-20T20:30:42.177Z,10.80
2019-04-20T20:33:18.882Z,12.37
2019-04-20T20:35:41.303Z,12.35
2019-04-20T20:38:01.094Z,10.25
2019-04-20T20:40:32.849Z,10.65
2019-04-20T20:43:07.277Z,10.10
2019-04-20T20:45:34.975Z,9.18
2019-04-20T20:48:13.470Z,7.53
2019-04-20T20:50:45.372Z,8.20
2019-04-20T20:53:02.254Z,8.55
2019-04-20T20:55:29.636Z,6.28
2019-04-20T20:57:59.246Z,7.78
2019-04-20T21:00:28.432Z,5.83
2019-04-20T21:02:56.211Z,5.28
2019-04-20T21:05:15.583Z,4.60
2019-04-20T21:07:42.760Z,5.28
2019-04-20T21:10:39.773Z,4.97
2019-04-20T21:13:03.443Z,4.95
2019-04-20T21:15:29.899Z,5.05
2019-04-20T21:18:20.778Z,4.25
2019-04-20T21:20:45.181Z,3.90
2019-04-20T21:23:07.181Z,5.03
2019-04-20T21:25:37.283Z,4.50
2019-04-20T21:27:57.054Z,4.25
2019-04-20T21:30:32.483Z,4.25
2019-04-20T21:32:57.279Z,4.10
2019-04-20T21:35:21.834Z,4.42
2019-04-20T21:37:58.272Z,4.72
2019-04-20T21:40:41.376Z,5.05
2019-04-20T21:43:08.816Z,5.03
2019-04-20T21:45:37.201Z,5.35
2019-04-20T21:48:12.728Z,4.40
2019-04-20T21:50:53.481Z,5.35
2019-04-20T21:53:08.690Z,8.43
2019-04-20T21:55:30.026Z,9.45
2019-04-20T21:58:00.427Z,8.23
2019-04-20T22:00:42.578Z,7.67
2019-04-20T22:03:09.862Z,8.53
2019-04-20T22:05:54.446Z,6.47
2019-04-20T22:08:22.222Z,5.47
2019-04-20T22:10:50.277Z,5.78
2019-04-20T22:13:40.228Z,7.15
2019-04-20T22:16:10.315Z,8.13
2019-04-20T22:18:46.352Z,6.12
2019-04-20T22:21:13.104Z,5.78
2019-04-20T22:24:03.213Z,6.00
2019-04-20T22:26:27.668Z,6.00
2019-04-20T22:28:50.021Z,7.22
2019-04-20T22:31:18.325Z,6.40
2019-04-20T22:33:46.831Z,6.10
2019-04-20T22:36:38.550Z,5.30
2019-04-20T22:39:34.644Z,6.00
2019-04-20T22:42:02.405Z,6.97
2019-04-20T22:44:28.383Z,6.50
2019-04-20T22:46:54.312Z,5.78
2019-04-20T22:49:42.029Z,5.72
2019-04-20T22:52:00.668Z,5.67
2019-04-20T22:54:36.331Z,6.05
2019-04-20T22:57:02.310Z,5.85
2019-04-20T22:59:22.594Z,5.30
2019-04-20T23:01:52.114Z,6.12
2019-04-20T23:04:15.040Z,6.58
2019-04-20T23:06:46.290Z,6.97
2019-04-20T23:09:13.279Z,7.05
2019-04-20T23:11:40.455Z,8.18
2019-04-20T23:14:08.690Z,7.87
2019-04-20T23:16:43.211Z,7.62
2019-04-20T23:19:04.519Z,7.22
2019-04-20T23:21:32.137Z,7.20
2019-04-20T23:24:03.822Z,7.72
2019-04-20T23:26:48.912Z,7.30
2019-04-20T23:29:15.780Z,6.65
2019-04-20T23:31:48.924Z,6.92
2019-04-20T23:34:16.565Z,6.67
2019-04-20T23:36:43.842Z,6.80
2019-04-20T23:39:08.718Z,6.75
2019-04-20T23:41:35.791Z,7.75
2019-04-20T23:44:25.189Z,6.72
2019-04-20T23:47:09.733Z,6.72
2019-04-20T23:49:53.808Z,7.40
2019-04-20T23:52:26.935Z,6.42
2019-04-20T23:54:35.074Z,6.78
2019-04-20T23:59:47.004Z,6.55
